createdAt,value
2018-07-22T00:04:48.977Z,100123.70
2018-07-22T00:09:46.505Z,100124.41
2018-07-22T00:14:44.002Z,100137.24
2018-07-22T00:19:41.501Z,100131.78
2018-07-22T00:24:38.996Z,100136.95
2018-07-22T00:29:36.471Z,100141.20
2018-07-22T00:34:33.963Z,100136.13
2018-07-22T00:39:31.477Z,100134.79
2018-07-22T00:44:28.990Z,100138.00
2018-07-22T00:49:26.493Z,100137.94
2018-07-22T00:54:24.180Z,100135.52
2018-07-22T00:59:21.828Z,100133.14
2018-07-22T01:04:19.356Z,100133.11
2018-07-22T01:09:16.871Z,100131.53
2018-07-22T01:14:14.386Z,100133.16
2018-07-22T01:19:11.902Z,100132.02
2018-07-22T01:24:09.476Z,100142.42
2018-07-22T01:29:07.008Z,100141.94
2018-07-22T01:34:04.516Z,100140.33
2018-07-22T01:39:02.051Z,100145.67
2018-07-22T01:43:59.542Z,100140.12
2018-07-22T01:48:57.040Z,100137.97
2018-07-22T01:53:54.539Z,100140.69
2018-07-22T01:58:52.110Z,100133.72
2018-07-22T02:03:49.628Z,100141.70
2018-07-22T02:08:47.160Z,100143.56
2018-07-22T02:13:44.663Z,100141.84
2018-07-22T02:18:42.163Z,100144.69
2018-07-22T02:23:39.690Z,100141.19
2018-07-22T02:28:37.184Z,100152.73
2018-07-22T02:33:34.675Z,100152.96
2018-07-22T02:38:32.192Z,100154.80
2018-07-22T02:43:29.715Z,100159.39
2018-07-22T02:48:27.196Z,100164.34
2018-07-22T02:53:24.705Z,100156.19
2018-07-22T02:58:22.215Z,100158.30
2018-07-22T03:03:19.776Z,100160.16
2018-07-22T03:08:17.306Z,100166.27
2018-07-22T03:13:14.831Z,100169.94
2018-07-22T03:18:12.880Z,100162.82
2018-07-22T03:23:10.476Z,100174.01
2018-07-22T03:28:08.252Z,100176.36
2018-07-22T03:33:05.822Z,100184.59
2018-07-22T03:38:03.388Z,100185.58
2018-07-22T03:43:00.918Z,100186.45
2018-07-22T03:47:58.484Z,100193.20
2018-07-22T03:52:56.017Z,100196.45
2018-07-22T03:57:53.658Z,100199.27
2018-07-22T04:02:51.196Z,100199.72
2018-07-22T04:07:48.725Z,100200.73
2018-07-22T04:12:46.253Z,100206.94
2018-07-22T04:17:43.779Z,100206.59
2018-07-22T04:22:41.315Z,100207.44
2018-07-22T04:27:38.918Z,100214.30
2018-07-22T04:32:36.442Z,100219.47
2018-07-22T04:37:34.013Z,100227.13
2018-07-22T04:42:31.529Z,100233.03
2018-07-22T04:47:29.053Z,100229.71
2018-07-22T04:52:26.567Z,100228.10
2018-07-22T04:57:24.126Z,100238.77
2018-07-22T05:02:22.466Z,100240.95
2018-07-22T05:07:19.988Z,100244.37
2018-07-22T05:12:17.618Z,100256.34
2018-07-22T05:17:15.244Z,100255.94
2018-07-22T05:22:12.819Z,100257.66
2018-07-22T05:27:10.388Z,100255.86
2018-07-22T05:32:07.959Z,100249.95
2018-07-22T05:37:05.554Z,100253.23
2018-07-22T05:42:04.601Z,100254.89
2018-07-22T05:47:02.264Z,100265.11
2018-07-22T05:51:59.782Z,100271.58
2018-07-22T05:56:57.321Z,100276.73
2018-07-22T06:01:54.913Z,100284.95
2018-07-22T06:06:52.449Z,100280.43
2018-07-22T06:11:55.315Z,100284.89
2018-07-22T06:16:52.874Z,100286.49
2018-07-22T06:21:50.398Z,100282.27
2018-07-22T06:26:47.936Z,100284.13
2018-07-22T06:31:45.777Z,100279.50
2018-07-22T06:36:43.422Z,100286.42
2018-07-22T06:41:49.458Z,100288.31
2018-07-22T06:46:47.069Z,100289.03
2018-07-22T06:51:44.609Z,100297.92
2018-07-22T06:56:42.165Z,100302.17
2018-07-22T07:01:39.791Z,100294.80
2018-07-22T07:06:37.351Z,100298.69
2018-07-22T07:11:43.038Z,100301.74
2018-07-22T07:16:40.665Z,100303.73
2018-07-22T07:21:38.210Z,100313.66
2018-07-22T07:26:35.831Z,100320.56
2018-07-22T07:31:33.513Z,100316.34
2018-07-22T07:36:31.756Z,100318.82
2018-07-22T07:41:34.831Z,100318.81
2018-07-22T07:46:35.623Z,100314.27
2018-07-22T07:51:33.465Z,100315.63
2018-07-22T07:56:31.040Z,100321.76
2018-07-22T08:01:28.901Z,100327.11
2018-07-22T08:06:26.481Z,100322.05
2018-07-22T08:11:33.380Z,100322.75
2018-07-22T08:16:30.977Z,100327.27
2018-07-22T08:21:28.658Z,100332.32
2018-07-22T08:26:26.149Z,100333.52
2018-07-22T08:31:23.694Z,100331.28
2018-07-22T08:36:21.229Z,100328.77
2018-07-22T08:41:22.832Z,100341.22
2018-07-22T08:46:20.540Z,100342.96
2018-07-22T08:51:18.105Z,100348.59
2018-07-22T08:56:15.666Z,100336.65
2018-07-22T09:01:13.276Z,100337.81
2018-07-22T09:06:10.909Z,100339.49
2018-07-22T09:11:10.105Z,100343.09
2018-07-22T09:16:07.932Z,100345.45
2018-07-22T09:21:05.664Z,100352.61
2018-07-22T09:26:03.251Z,100354.09
2018-07-22T09:31:00.873Z,100354.70
2018-07-22T09:35:58.454Z,100356.84
2018-07-22T09:40:59.089Z,100353.65
2018-07-22T09:45:56.832Z,100362.23
2018-07-22T09:50:54.535Z,100361.83
2018-07-22T09:55:52.134Z,100360.05
2018-07-22T10:00:54.936Z,100360.02
2018-07-22T10:05:52.658Z,100362.28
2018-07-22T10:10:50.191Z,100362.00
2018-07-22T10:15:47.790Z,100356.67
2018-07-22T10:20:45.312Z,100355.26
2018-07-22T10:25:42.979Z,100350.30
2018-07-22T10:30:40.602Z,100355.23
2018-07-22T10:35:38.247Z,100358.98
2018-07-22T10:40:35.766Z,100359.53
2018-07-22T10:45:33.341Z,100354.94
2018-07-22T10:50:30.918Z,100347.89
2018-07-22T10:55:28.471Z,100351.41
2018-07-22T11:00:26.039Z,100350.02
2018-07-22T11:05:23.673Z,100333.91
2018-07-22T11:10:21.204Z,100337.48
2018-07-22T11:15:18.746Z,100325.09
2018-07-22T11:20:16.332Z,100319.27
2018-07-22T11:25:13.899Z,100337.03
2018-07-22T11:30:11.444Z,100327.23
2018-07-22T11:35:08.964Z,100318.61
2018-07-22T11:40:06.527Z,100314.23
2018-07-22T11:45:04.201Z,100312.47
2018-07-22T11:50:01.756Z,100309.58
2018-07-22T11:54:59.334Z,100303.93
2018-07-22T11:59:56.896Z,100297.78
2018-07-22T12:04:54.422Z,100301.02
2018-07-22T12:09:51.968Z,100300.80
2018-07-22T12:14:49.491Z,100291.01
2018-07-22T12:19:46.988Z,100291.97
2018-07-22T12:24:44.480Z,100300.33
2018-07-22T12:29:41.996Z,100292.09
2018-07-22T12:34:39.524Z,100287.20
2018-07-22T12:39:40.273Z,100286.58
2018-07-22T12:44:37.958Z,100277.25
2018-07-22T12:49:35.527Z,100271.53
2018-07-22T12:54:33.036Z,100279.55
2018-07-22T12:59:30.628Z,100272.22
2018-07-22T13:04:28.254Z,100279.82
2018-07-22T13:09:25.807Z,100275.22
2018-07-22T13:14:23.350Z,100277.11
2018-07-22T13:19:20.900Z,100282.41
2018-07-22T13:24:19.478Z,100282.85
2018-07-22T13:29:31.393Z,100281.66
2018-07-22T13:34:36.101Z,100277.56
2018-07-22T13:39:40.521Z,100269.95
2018-07-22T13:44:38.593Z,100277.55
2018-07-22T13:49:36.142Z,100277.00
2018-07-22T13:54:33.696Z,100283.10
2018-07-22T13:59:31.742Z,100290.20
2018-07-22T14:04:29.290Z,100289.60
2018-07-22T14:09:26.799Z,100280.66
2018-07-22T14:14:24.340Z,100290.70
2018-07-22T14:19:23.640Z,100296.56
2018-07-22T14:24:21.200Z,100297.71
2018-07-22T14:29:18.725Z,100299.52
2018-07-22T14:34:16.313Z,100293.58
2018-07-22T14:39:13.893Z,100305.58
2018-07-22T14:44:11.505Z,100300.38
2018-07-22T14:49:09.895Z,100296.05
2018-07-22T14:54:12.184Z,100286.48
2018-07-22T14:59:11.354Z,100293.00
2018-07-22T15:04:13.748Z,100294.33
2018-07-22T15:09:11.711Z,100297.88
2018-07-22T15:14:09.306Z,100288.37
2018-07-22T15:19:12.041Z,100293.84
2018-07-22T15:24:09.724Z,100283.45
2018-07-22T15:29:09.460Z,100284.45
2018-07-22T15:34:08.933Z,100293.08
2018-07-22T15:39:08.925Z,100292.02
2018-07-22T15:44:06.506Z,100295.48
2018-07-22T15:49:04.723Z,100287.66
2018-07-22T15:54:02.392Z,100295.55
2018-07-22T15:59:01.938Z,100283.18
2018-07-22T16:04:01.026Z,100285.56
2018-07-22T16:08:59.423Z,100278.34
2018-07-22T16:13:57.351Z,100274.81
2018-07-22T16:18:57.311Z,100277.65
2018-07-22T16:23:56.445Z,100284.28
2018-07-22T16:28:54.028Z,100281.63
2018-07-22T16:33:51.592Z,100280.72
2018-07-22T16:38:49.200Z,100281.07
2018-07-22T16:43:46.891Z,100286.50
2018-07-22T16:48:45.820Z,100289.84
2018-07-22T16:53:43.370Z,100289.84
2018-07-22T16:58:42.261Z,100292.91
2018-07-22T17:03:40.613Z,100283.52
2018-07-22T17:08:38.164Z,100288.30
2018-07-22T17:13:35.737Z,100283.45
2018-07-22T17:18:33.245Z,100290.19
2018-07-22T17:23:32.252Z,100282.35
2018-07-22T17:28:29.928Z,100285.73
2018-07-22T17:33:27.434Z,100288.19
2018-07-22T17:38:24.968Z,100291.84
2018-07-22T17:43:22.833Z,100295.47
2018-07-22T17:48:20.376Z,100297.87
2018-07-22T17:53:17.905Z,100302.30
2018-07-22T17:58:15.473Z,100300.95
2018-07-22T18:03:27.472Z,100303.93
2018-07-22T18:08:25.090Z,100305.13
2018-07-22T18:13:22.694Z,100308.16
2018-07-22T18:18:20.248Z,100305.44
2018-07-22T18:23:17.776Z,100304.31
2018-07-22T18:28:15.730Z,100318.87
2018-07-22T18:33:13.285Z,100313.06
2018-07-22T18:38:14.807Z,100319.25
2018-07-22T18:43:12.547Z,100321.91
2018-07-22T18:48:10.116Z,100328.34
2018-07-22T18:53:07.696Z,100337.46
2018-07-22T18:58:05.211Z,100340.78
2018-07-22T19:03:02.715Z,100347.82
2018-07-22T19:08:00.231Z,100353.70
2018-07-22T19:12:57.752Z,100358.38
2018-07-22T19:17:55.281Z,100360.62
2018-07-22T19:22:52.809Z,100369.80
2018-07-22T19:27:50.529Z,100369.22
2018-07-22T19:32:48.051Z,100373.50
2018-07-22T19:37:48.952Z,100382.46
2018-07-22T19:42:46.480Z,100387.23
2018-07-22T19:47:44.028Z,100397.80
2018-07-22T19:52:41.542Z,100394.65
2018-07-22T19:57:39.069Z,100398.58
2018-07-22T20:02:36.652Z,100411.13
2018-07-22T20:07:34.154Z,100417.11
2018-07-22T20:12:31.704Z,100420.59
2018-07-22T20:17:29.475Z,100421.28
2018-07-22T20:22:26.977Z,100421.47
2018-07-22T20:27:25.558Z,100425.84
2018-07-22T20:32:23.065Z,100433.69
2018-07-22T20:37:20.564Z,100433.37
2018-07-22T20:42:18.079Z,100435.72
2018-07-22T20:47:18.029Z,100448.70
2018-07-22T20:52:20.016Z,100444.92
2018-07-22T20:57:23.403Z,100449.10
2018-07-22T21:02:23.859Z,100459.33
2018-07-22T21:07:25.548Z,100463.05
2018-07-22T21:12:49.301Z,100460.39
2018-07-22T21:17:47.861Z,100460.58
2018-07-22T21:22:45.419Z,100460.86
2018-07-22T21:27:42.944Z,100460.35
2018-07-22T21:32:40.629Z,100470.28
2018-07-22T21:37:38.432Z,100471.11
2018-07-22T21:42:35.936Z,100477.58
2018-07-22T21:47:33.622Z,100472.23
2018-07-22T21:52:31.138Z,100469.31
2018-07-22T21:57:28.658Z,100472.26
2018-07-22T22:02:30.098Z,100477.59
2018-07-22T22:07:27.647Z,100481.88
2018-07-22T22:12:25.169Z,100482.39
2018-07-22T22:17:22.733Z,100480.23
2018-07-22T22:22:20.269Z,100483.73
2018-07-22T22:27:17.816Z,100482.95
2018-07-22T22:32:15.358Z,100486.45
2018-07-22T22:37:12.863Z,100481.09
2018-07-22T22:42:10.377Z,100489.69
2018-07-22T22:47:07.940Z,100488.34
2018-07-22T22:52:06.925Z,100490.50
2018-07-22T22:57:04.457Z,100482.95
2018-07-22T23:02:02.012Z,100483.14
2018-07-22T23:06:59.530Z,100475.90
2018-07-22T23:11:57.069Z,100478.47
2018-07-22T23:16:54.574Z,100479.67
2018-07-22T23:21:53.500Z,100476.95
2018-07-22T23:26:50.999Z,100479.26
2018-07-22T23:31:48.544Z,100480.68
2018-07-22T23:36:46.045Z,100478.22
2018-07-22T23:41:43.565Z,100473.69
2018-07-22T23:46:43.932Z,100471.57
2018-07-22T23:51:46.281Z,100479.50
2018-07-22T23:56:43.806Z,100478.66
